sensor_id;sensor_type;location;lat;lon;timestamp;P1;durP1;ratioP1;P2;durP2;ratioP2
78406;SDS011;67692;51.074;-1.790;2023-12-28T00:01:36;32.53;;;3.38;;
78406;SDS011;67692;51.074;-1.790;2023-12-28T00:04:03;24.00;;;3.92;;
78406;SDS011;67692;51.074;-1.790;2023-12-28T00:06:29;28.38;;;4.63;;
78406;SDS011;67692;51.074;-1.790;2023-12-28T00:08:55;29.10;;;4.43;;
78406;SDS011;67692;51.074;-1.790;2023-12-28T00:11:23;30.15;;;4.55;;
78406;SDS011;67692;51.074;-1.790;2023-12-28T00:13:50;32.55;;;4.68;;
78406;SDS011;67692;51.074;-1.790;2023-12-28T00:16:17;38.95;;;4.35;;
78406;SDS011;67692;51.074;-1.790;2023-12-28T00:18:43;32.13;;;4.72;;
78406;SDS011;67692;51.074;-1.790;2023-12-28T00:21:10;30.55;;;3.72;;
78406;SDS011;67692;51.074;-1.790;2023-12-28T00:23:36;28.63;;;4.35;;
78406;SDS011;67692;51.074;-1.790;2023-12-28T00:26:03;33.42;;;5.35;;
78406;SDS011;67692;51.074;-1.790;2023-12-28T00:28:31;28.00;;;4.40;;
78406;SDS011;67692;51.074;-1.790;2023-12-28T00:30:58;38.13;;;5.03;;
78406;SDS011;67692;51.074;-1.790;2023-12-28T00:33:24;34.55;;;4.00;;
78406;SDS011;67692;51.074;-1.790;2023-12-28T00:35:51;33.55;;;5.22;;
78406;SDS011;67692;51.074;-1.790;2023-12-28T00:38:17;26.52;;;3.92;;
78406;SDS011;67692;51.074;-1.790;2023-12-28T00:40:44;30.35;;;4.18;;
78406;SDS011;67692;51.074;-1.790;2023-12-28T00:43:11;39.42;;;4.40;;
78406;SDS011;67692;51.074;-1.790;2023-12-28T00:45:39;39.50;;;4.28;;
78406;SDS011;67692;51.074;-1.790;2023-12-28T00:48:05;33.95;;;4.95;;
78406;SDS011;67692;51.074;-1.790;2023-12-28T00:50:32;35.40;;;5.43;;
78406;SDS011;67692;51.074;-1.790;2023-12-28T00:52:59;34.38;;;5.95;;
78406;SDS011;67692;51.074;-1.790;2023-12-28T00:55:26;41.08;;;6.35;;
78406;SDS011;67692;51.074;-1.790;2023-12-28T00:57:52;34.00;;;4.70;;
78406;SDS011;67692;51.074;-1.790;2023-12-28T01:00:20;33.13;;;4.55;;
78406;SDS011;67692;51.074;-1.790;2023-12-28T01:02:49;35.47;;;4.68;;
78406;SDS011;67692;51.074;-1.790;2023-12-28T01:05:18;43.60;;;5.68;;
78406;SDS011;67692;51.074;-1.790;2023-12-28T01:07:46;34.25;;;5.07;;
78406;SDS011;67692;51.074;-1.790;2023-12-28T01:10:12;26.92;;;3.25;;
78406;SDS011;67692;51.074;-1.790;2023-12-28T01:12:39;19.83;;;2.72;;
78406;SDS011;67692;51.074;-1.790;2023-12-28T01:15:06;39.08;;;4.10;;
78406;SDS011;67692;51.074;-1.790;2023-12-28T01:17:33;21.92;;;3.55;;
78406;SDS011;67692;51.074;-1.790;2023-12-28T01:20:01;18.63;;;3.13;;
78406;SDS011;67692;51.074;-1.790;2023-12-28T01:22:29;20.42;;;3.60;;
78406;SDS011;67692;51.074;-1.790;2023-12-28T01:24:55;16.27;;;2.95;;
78406;SDS011;67692;51.074;-1.790;2023-12-28T01:27:22;27.85;;;4.45;;
78406;SDS011;67692;51.074;-1.790;2023-12-28T01:29:48;15.70;;;2.38;;
78406;SDS011;67692;51.074;-1.790;2023-12-28T01:32:15;29.75;;;3.15;;
78406;SDS011;67692;51.074;-1.790;2023-12-28T01:34:42;25.38;;;2.85;;
78406;SDS011;67692;51.074;-1.790;2023-12-28T01:37:10;25.13;;;2.97;;
78406;SDS011;67692;51.074;-1.790;2023-12-28T01:39:36;21.42;;;3.17;;
78406;SDS011;67692;51.074;-1.790;2023-12-28T01:42:03;29.35;;;4.00;;
78406;SDS011;67692;51.074;-1.790;2023-12-28T01:44:30;20.48;;;2.67;;
78406;SDS011;67692;51.074;-1.790;2023-12-28T01:46:57;26.48;;;3.30;;
78406;SDS011;67692;51.074;-1.790;2023-12-28T01:49:24;24.65;;;3.53;;
78406;SDS011;67692;51.074;-1.790;2023-12-28T01:51:51;34.80;;;5.05;;
78406;SDS011;67692;51.074;-1.790;2023-12-28T01:54:19;32.45;;;5.03;;
78406;SDS011;67692;51.074;-1.790;2023-12-28T01:56:46;21.42;;;3.05;;
78406;SDS011;67692;51.074;-1.790;2023-12-28T01:59:12;38.10;;;4.32;;
78406;SDS011;67692;51.074;-1.790;2023-12-28T02:01:39;33.58;;;4.20;;
78406;SDS011;67692;51.074;-1.790;2023-12-28T02:04:07;32.55;;;4.47;;
78406;SDS011;67692;51.074;-1.790;2023-12-28T02:06:33;43.53;;;5.75;;
78406;SDS011;67692;51.074;-1.790;2023-12-28T02:09:00;42.42;;;5.22;;
78406;SDS011;67692;51.074;-1.790;2023-12-28T02:11:28;35.42;;;5.70;;
78406;SDS011;67692;51.074;-1.790;2023-12-28T02:13:56;37.33;;;4.90;;
78406;SDS011;67692;51.074;-1.790;2023-12-28T02:16:24;34.55;;;4.38;;
78406;SDS011;67692;51.074;-1.790;2023-12-28T02:18:56;25.02;;;5.05;;
78406;SDS011;67692;51.074;-1.790;2023-12-28T02:21:26;30.35;;;5.88;;
78406;SDS011;67692;51.074;-1.790;2023-12-28T02:23:54;24.35;;;3.90;;
78406;SDS011;67692;51.074;-1.790;2023-12-28T02:26:22;29.48;;;4.32;;
78406;SDS011;67692;51.074;-1.790;2023-12-28T02:28:48;42.78;;;3.78;;
78406;SDS011;67692;51.074;-1.790;2023-12-28T02:31:32;31.00;;;3.95;;
78406;SDS011;67692;51.074;-1.790;2023-12-28T02:34:04;24.80;;;3.55;;
78406;SDS011;67692;51.074;-1.790;2023-12-28T02:36:35;30.05;;;3.60;;
78406;SDS011;67692;51.074;-1.790;2023-12-28T02:39:05;37.47;;;4.70;;
78406;SDS011;67692;51.074;-1.790;2023-12-28T02:41:34;24.80;;;4.15;;
78406;SDS011;67692;51.074;-1.790;2023-12-28T02:44:01;24.17;;;4.45;;
78406;SDS011;67692;51.074;-1.790;2023-12-28T02:46:28;28.05;;;4.35;;
78406;SDS011;67692;51.074;-1.790;2023-12-28T02:48:54;33.55;;;5.68;;
78406;SDS011;67692;51.074;-1.790;2023-12-28T02:51:22;25.10;;;4.32;;
78406;SDS011;67692;51.074;-1.790;2023-12-28T02:53:49;24.05;;;4.03;;
78406;SDS011;67692;51.074;-1.790;2023-12-28T02:56:15;29.98;;;3.72;;
78406;SDS011;67692;51.074;-1.790;2023-12-28T02:58:43;36.50;;;4.68;;
78406;SDS011;67692;51.074;-1.790;2023-12-28T03:01:10;31.52;;;3.70;;
78406;SDS011;67692;51.074;-1.790;2023-12-28T03:03:37;38.25;;;4.47;;
78406;SDS011;67692;51.074;-1.790;2023-12-28T03:06:04;22.08;;;4.00;;
78406;SDS011;67692;51.074;-1.790;2023-12-28T03:08:31;27.67;;;5.25;;
78406;SDS011;67692;51.074;-1.790;2023-12-28T03:10:57;31.55;;;5.05;;
78406;SDS011;67692;51.074;-1.790;2023-12-28T03:13:24;31.42;;;5.45;;
78406;SDS011;67692;51.074;-1.790;2023-12-28T03:15:52;31.13;;;4.43;;
78406;SDS011;67692;51.074;-1.790;2023-12-28T03:18:19;32.60;;;4.60;;
78406;SDS011;67692;51.074;-1.790;2023-12-28T03:20:45;45.83;;;5.43;;
78406;SDS011;67692;51.074;-1.790;2023-12-28T03:23:12;33.95;;;4.05;;
78406;SDS011;67692;51.074;-1.790;2023-12-28T03:25:39;33.20;;;4.60;;
78406;SDS011;67692;51.074;-1.790;2023-12-28T03:28:05;25.55;;;4.28;;
78406;SDS011;67692;51.074;-1.790;2023-12-28T03:30:32;29.15;;;4.30;;
78406;SDS011;67692;51.074;-1.790;2023-12-28T03:33:00;22.48;;;3.58;;
78406;SDS011;67692;51.074;-1.790;2023-12-28T03:35:26;37.83;;;4.53;;
78406;SDS011;67692;51.074;-1.790;2023-12-28T03:37:53;29.10;;;4.78;;
78406;SDS011;67692;51.074;-1.790;2023-12-28T03:40:20;24.52;;;3.97;;
78406;SDS011;67692;51.074;-1.790;2023-12-28T03:42:47;22.30;;;4.68;;
78406;SDS011;67692;51.074;-1.790;2023-12-28T03:45:13;37.80;;;5.40;;
78406;SDS011;67692;51.074;-1.790;2023-12-28T03:47:40;26.83;;;4.30;;
78406;SDS011;67692;51.074;-1.790;2023-12-28T03:50:09;29.65;;;4.70;;
78406;SDS011;67692;51.074;-1.790;2023-12-28T03:52:35;36.95;;;5.38;;
78406;SDS011;67692;51.074;-1.790;2023-12-28T03:55:02;38.08;;;4.97;;
78406;SDS011;67692;51.074;-1.790;2023-12-28T03:57:29;30.58;;;4.40;;
78406;SDS011;67692;51.074;-1.790;2023-12-28T03:59:56;30.88;;;4.40;;
78406;SDS011;67692;51.074;-1.790;2023-12-28T04:02:22;31.25;;;3.55;;
78406;SDS011;67692;51.074;-1.790;2023-12-28T04:04:49;31.80;;;3.70;;
78406;SDS011;67692;51.074;-1.790;2023-12-28T04:07:18;26.08;;;4.10;;
78406;SDS011;67692;51.074;-1.790;2023-12-28T04:09:44;32.28;;;4.90;;
78406;SDS011;67692;51.074;-1.790;2023-12-28T04:12:11;20.83;;;4.40;;
78406;SDS011;67692;51.074;-1.790;2023-12-28T04:14:38;24.60;;;3.45;;
78406;SDS011;67692;51.074;-1.790;2023-12-28T04:17:04;24.95;;;4.05;;
78406;SDS011;67692;51.074;-1.790;2023-12-28T04:19:31;23.52;;;3.50;;
78406;SDS011;67692;51.074;-1.790;2023-12-28T04:21:57;25.77;;;3.80;;
78406;SDS011;67692;51.074;-1.790;2023-12-28T04:24:25;18.95;;;3.78;;
78406;SDS011;67692;51.074;-1.790;2023-12-28T04:26:52;23.55;;;3.33;;
78406;SDS011;67692;51.074;-1.790;2023-12-28T04:29:19;24.38;;;4.20;;
78406;SDS011;67692;51.074;-1.790;2023-12-28T04:31:46;24.08;;;3.00;;
78406;SDS011;67692;51.074;-1.790;2023-12-28T04:34:12;23.75;;;3.22;;
78406;SDS011;67692;51.074;-1.790;2023-12-28T04:36:39;26.83;;;3.75;;
78406;SDS011;67692;51.074;-1.790;2023-12-28T04:39:07;20.92;;;4.10;;
78406;SDS011;67692;51.074;-1.790;2023-12-28T04:41:35;25.10;;;3.72;;
78406;SDS011;67692;51.074;-1.790;2023-12-28T04:44:02;21.15;;;2.70;;
78406;SDS011;67692;51.074;-1.790;2023-12-28T04:46:29;25.90;;;4.53;;
78406;SDS011;67692;51.074;-1.790;2023-12-28T04:48:56;19.20;;;3.35;;
78406;SDS011;67692;51.074;-1.790;2023-12-28T04:51:22;28.38;;;3.88;;
78406;SDS011;67692;51.074;-1.790;2023-12-28T04:53:49;32.40;;;3.45;;
78406;SDS011;67692;51.074;-1.790;2023-12-28T04:56:18;28.13;;;2.88;;
78406;SDS011;67692;51.074;-1.790;2023-12-28T04:58:46;24.67;;;2.88;;
78406;SDS011;67692;51.074;-1.790;2023-12-28T05:01:13;16.70;;;2.83;;
78406;SDS011;67692;51.074;-1.790;2023-12-28T05:03:39;17.45;;;2.35;;
78406;SDS011;67692;51.074;-1.790;2023-12-28T05:06:06;22.73;;;2.90;;
78406;SDS011;67692;51.074;-1.790;2023-12-28T05:08:33;15.80;;;2.35;;
78406;SDS011;67692;51.074;-1.790;2023-12-28T05:10:59;14.18;;;2.78;;
78406;SDS011;67692;51.074;-1.790;2023-12-28T05:13:26;12.50;;;2.15;;
78406;SDS011;67692;51.074;-1.790;2023-12-28T05:15:54;13.80;;;2.63;;
78406;SDS011;67692;51.074;-1.790;2023-12-28T05:18:21;15.95;;;2.47;;
78406;SDS011;67692;51.074;-1.790;2023-12-28T05:20:47;25.20;;;3.97;;
78406;SDS011;67692;51.074;-1.790;2023-12-28T05:23:14;20.88;;;3.03;;
78406;SDS011;67692;51.074;-1.790;2023-12-28T05:25:41;17.55;;;2.85;;
78406;SDS011;67692;51.074;-1.790;2023-12-28T05:28:07;15.20;;;3.03;;
78406;SDS011;67692;51.074;-1.790;2023-12-28T05:30:34;25.00;;;3.58;;
78406;SDS011;67692;51.074;-1.790;2023-12-28T05:33:02;27.17;;;4.63;;
78406;SDS011;67692;51.074;-1.790;2023-12-28T05:35:29;30.92;;;4.60;;
78406;SDS011;67692;51.074;-1.790;2023-12-28T05:37:55;27.02;;;3.67;;
78406;SDS011;67692;51.074;-1.790;2023-12-28T05:40:22;29.25;;;4.07;;
78406;SDS011;67692;51.074;-1.790;2023-12-28T05:42:48;32.45;;;4.15;;
78406;SDS011;67692;51.074;-1.790;2023-12-28T05:45:15;27.08;;;4.00;;
78406;SDS011;67692;51.074;-1.790;2023-12-28T05:47:42;27.38;;;4.00;;
78406;SDS011;67692;51.074;-1.790;2023-12-28T05:50:10;38.28;;;4.32;;
78406;SDS011;67692;51.074;-1.790;2023-12-28T05:52:37;34.25;;;5.75;;
78406;SDS011;67692;51.074;-1.790;2023-12-28T05:55:04;39.30;;;6.10;;
78406;SDS011;67692;51.074;-1.790;2023-12-28T05:57:31;36.33;;;4.93;;
78406;SDS011;67692;51.074;-1.790;2023-12-28T05:59:57;35.67;;;5.60;;
78406;SDS011;67692;51.074;-1.790;2023-12-28T06:02:24;29.05;;;4.72;;
78406;SDS011;67692;51.074;-1.790;2023-12-28T06:04:51;39.50;;;5.50;;
78406;SDS011;67692;51.074;-1.790;2023-12-28T06:07:18;36.92;;;4.80;;
78406;SDS011;67692;51.074;-1.790;2023-12-28T06:09:44;34.97;;;4.90;;
78406;SDS011;67692;51.074;-1.790;2023-12-28T06:12:11;37.42;;;5.00;;
78406;SDS011;67692;51.074;-1.790;2023-12-28T06:14:38;37.95;;;5.53;;
78406;SDS011;67692;51.074;-1.790;2023-12-28T06:17:04;34.95;;;4.45;;
78406;SDS011;67692;51.074;-1.790;2023-12-28T06:19:31;38.35;;;5.38;;
78406;SDS011;67692;51.074;-1.790;2023-12-28T06:21:58;40.80;;;4.50;;
78406;SDS011;67692;51.074;-1.790;2023-12-28T06:24:26;36.15;;;5.10;;
78406;SDS011;67692;51.074;-1.790;2023-12-28T06:26:53;31.15;;;4.63;;
78406;SDS011;67692;51.074;-1.790;2023-12-28T06:29:19;34.85;;;4.88;;
78406;SDS011;67692;51.074;-1.790;2023-12-28T06:31:46;32.58;;;4.63;;
78406;SDS011;67692;51.074;-1.790;2023-12-28T06:34:12;39.05;;;5.18;;
78406;SDS011;67692;51.074;-1.790;2023-12-28T06:36:39;36.67;;;4.75;;
78406;SDS011;67692;51.074;-1.790;2023-12-28T06:39:06;32.20;;;5.28;;
78406;SDS011;67692;51.074;-1.790;2023-12-28T06:41:34;32.58;;;4.63;;
78406;SDS011;67692;51.074;-1.790;2023-12-28T06:44:01;32.47;;;4.78;;
78406;SDS011;67692;51.074;-1.790;2023-12-28T06:46:27;33.55;;;5.40;;
78406;SDS011;67692;51.074;-1.790;2023-12-28T06:48:54;35.38;;;5.72;;
78406;SDS011;67692;51.074;-1.790;2023-12-28T06:51:23;32.10;;;5.53;;
78406;SDS011;67692;51.074;-1.790;2023-12-28T06:53:49;27.70;;;4.38;;
78406;SDS011;67692;51.074;-1.790;2023-12-28T06:56:16;42.47;;;5.95;;
78406;SDS011;67692;51.074;-1.790;2023-12-28T06:58:45;35.25;;;4.93;;
78406;SDS011;67692;51.074;-1.790;2023-12-28T07:01:11;32.80;;;5.47;;
78406;SDS011;67692;51.074;-1.790;2023-12-28T07:03:38;41.95;;;5.15;;
78406;SDS011;67692;51.074;-1.790;2023-12-28T07:06:05;39.38;;;6.32;;
78406;SDS011;67692;51.074;-1.790;2023-12-28T07:08:31;31.38;;;4.70;;
78406;SDS011;67692;51.074;-1.790;2023-12-28T07:10:58;27.40;;;4.72;;
78406;SDS011;67692;51.074;-1.790;2023-12-28T07:13:25;23.88;;;3.63;;
78406;SDS011;67692;51.074;-1.790;2023-12-28T07:15:53;35.47;;;4.57;;
78406;SDS011;67692;51.074;-1.790;2023-12-28T07:18:19;29.08;;;3.90;;
78406;SDS011;67692;51.074;-1.790;2023-12-28T07:20:46;33.03;;;5.45;;
78406;SDS011;67692;51.074;-1.790;2023-12-28T07:23:13;34.50;;;4.28;;
78406;SDS011;67692;51.074;-1.790;2023-12-28T07:25:40;32.10;;;4.43;;
78406;SDS011;67692;51.074;-1.790;2023-12-28T07:28:06;27.85;;;4.47;;
78406;SDS011;67692;51.074;-1.790;2023-12-28T07:30:33;32.28;;;4.43;;
78406;SDS011;67692;51.074;-1.790;2023-12-28T07:33:01;37.05;;;5.05;;
78406;SDS011;67692;51.074;-1.790;2023-12-28T07:35:28;42.22;;;6.32;;
78406;SDS011;67692;51.074;-1.790;2023-12-28T07:37:54;31.33;;;4.60;;
78406;SDS011;67692;51.074;-1.790;2023-12-28T07:40:21;31.95;;;5.75;;
78406;SDS011;67692;51.074;-1.790;2023-12-28T07:42:48;43.35;;;5.13;;
78406;SDS011;67692;51.074;-1.790;2023-12-28T07:45:14;39.50;;;5.13;;
78406;SDS011;67692;51.074;-1.790;2023-12-28T07:47:42;30.52;;;4.60;;
78406;SDS011;67692;51.074;-1.790;2023-12-28T07:50:11;29.58;;;4.38;;
78406;SDS011;67692;51.074;-1.790;2023-12-28T07:52:38;47.60;;;6.63;;
78406;SDS011;67692;51.074;-1.790;2023-12-28T07:55:05;47.95;;;5.93;;
78406;SDS011;67692;51.074;-1.790;2023-12-28T07:57:31;40.15;;;5.35;;
78406;SDS011;67692;51.074;-1.790;2023-12-28T07:59:59;37.90;;;4.32;;
78406;SDS011;67692;51.074;-1.790;2023-12-28T08:02:25;26.33;;;3.55;;
78406;SDS011;67692;51.074;-1.790;2023-12-28T08:04:52;23.63;;;3.63;;
78406;SDS011;67692;51.074;-1.790;2023-12-28T08:07:21;20.70;;;3.83;;
78406;SDS011;67692;51.074;-1.790;2023-12-28T08:09:47;26.33;;;4.18;;
78406;SDS011;67692;51.074;-1.790;2023-12-28T08:12:14;24.67;;;3.10;;
78406;SDS011;67692;51.074;-1.790;2023-12-28T08:14:41;23.50;;;4.18;;
78406;SDS011;67692;51.074;-1.790;2023-12-28T08:17:07;40.28;;;4.07;;
78406;SDS011;67692;51.074;-1.790;2023-12-28T08:19:34;36.17;;;4.55;;
78406;SDS011;67692;51.074;-1.790;2023-12-28T08:22:01;39.72;;;5.65;;
78406;SDS011;67692;51.074;-1.790;2023-12-28T08:24:29;33.15;;;4.32;;
78406;SDS011;67692;51.074;-1.790;2023-12-28T08:26:55;42.97;;;5.22;;
78406;SDS011;67692;51.074;-1.790;2023-12-28T08:29:26;39.00;;;5.35;;
78406;SDS011;67692;51.074;-1.790;2023-12-28T08:32:33;37.85;;;4.68;;
78406;SDS011;67692;51.074;-1.790;2023-12-28T08:35:22;37.53;;;5.22;;
78406;SDS011;67692;51.074;-1.790;2023-12-28T08:38:25;26.75;;;3.88;;
78406;SDS011;67692;51.074;-1.790;2023-12-28T08:40:53;31.95;;;4.20;;
78406;SDS011;67692;51.074;-1.790;2023-12-28T08:43:28;36.63;;;4.38;;
78406;SDS011;67692;51.074;-1.790;2023-12-28T08:46:03;39.80;;;4.18;;
78406;SDS011;67692;51.074;-1.790;2023-12-28T08:49:10;29.40;;;4.28;;
78406;SDS011;67692;51.074;-1.790;2023-12-28T08:52:15;30.98;;;4.00;;
78406;SDS011;67692;51.074;-1.790;2023-12-28T08:55:21;28.02;;;4.45;;
78406;SDS011;67692;51.074;-1.790;2023-12-28T09:01:22;24.35;;;3.40;;
78406;SDS011;67692;51.074;-1.790;2023-12-28T09:10:05;24.17;;;4.05;;
78406;SDS011;67692;51.074;-1.790;2023-12-28T09:16:25;24.88;;;3.75;;
78406;SDS011;67692;51.074;-1.790;2023-12-28T09:18:53;27.50;;;3.67;;
78406;SDS011;67692;51.074;-1.790;2023-12-28T09:21:20;47.05;;;5.05;;
78406;SDS011;67692;51.074;-1.790;2023-12-28T09:23:47;31.80;;;4.75;;
78406;SDS011;67692;51.074;-1.790;2023-12-28T09:26:13;32.70;;;4.05;;
78406;SDS011;67692;51.074;-1.790;2023-12-28T09:28:40;26.83;;;3.55;;
78406;SDS011;67692;51.074;-1.790;2023-12-28T09:31:07;33.85;;;4.32;;
78406;SDS011;67692;51.074;-1.790;2023-12-28T09:33:35;29.30;;;4.07;;
78406;SDS011;67692;51.074;-1.790;2023-12-28T09:36:03;27.33;;;4.72;;
78406;SDS011;67692;51.074;-1.790;2023-12-28T09:38:30;38.42;;;4.18;;
78406;SDS011;67692;51.074;-1.790;2023-12-28T09:40:57;22.98;;;4.13;;
78406;SDS011;67692;51.074;-1.790;2023-12-28T09:43:30;35.10;;;4.15;;
78406;SDS011;67692;51.074;-1.790;2023-12-28T09:46:05;27.38;;;4.22;;
78406;SDS011;67692;51.074;-1.790;2023-12-28T09:48:32;31.95;;;4.45;;
78406;SDS011;67692;51.074;-1.790;2023-12-28T09:51:01;28.15;;;4.22;;
78406;SDS011;67692;51.074;-1.790;2023-12-28T09:53:27;19.77;;;3.13;;
78406;SDS011;67692;51.074;-1.790;2023-12-28T09:55:54;29.13;;;2.95;;
78406;SDS011;67692;51.074;-1.790;2023-12-28T09:58:21;25.92;;;3.92;;
78406;SDS011;67692;51.074;-1.790;2023-12-28T10:00:49;23.95;;;3.30;;
78406;SDS011;67692;51.074;-1.790;2023-12-28T10:03:16;15.60;;;2.38;;
78406;SDS011;67692;51.074;-1.790;2023-12-28T10:05:45;8.00;;;1.52;;
78406;SDS011;67692;51.074;-1.790;2023-12-28T10:08:12;8.85;;;1.10;;
78406;SDS011;67692;51.074;-1.790;2023-12-28T10:10:39;10.60;;;1.73;;
78406;SDS011;67692;51.074;-1.790;2023-12-28T10:13:06;10.10;;;1.40;;
78406;SDS011;67692;51.074;-1.790;2023-12-28T10:15:34;8.50;;;1.45;;
78406;SDS011;67692;51.074;-1.790;2023-12-28T10:18:02;18.38;;;2.60;;
78406;SDS011;67692;51.074;-1.790;2023-12-28T10:20:30;19.08;;;2.83;;
78406;SDS011;67692;51.074;-1.790;2023-12-28T10:22:58;36.00;;;4.28;;
78406;SDS011;67692;51.074;-1.790;2023-12-28T10:25:25;33.65;;;3.78;;
78406;SDS011;67692;51.074;-1.790;2023-12-28T10:27:52;26.40;;;3.65;;
78406;SDS011;67692;51.074;-1.790;2023-12-28T10:30:19;26.30;;;3.78;;
78406;SDS011;67692;51.074;-1.790;2023-12-28T10:32:47;38.47;;;4.90;;
78406;SDS011;67692;51.074;-1.790;2023-12-28T10:35:12;37.40;;;5.20;;
78406;SDS011;67692;51.074;-1.790;2023-12-28T10:37:40;51.25;;;5.55;;
78406;SDS011;67692;51.074;-1.790;2023-12-28T10:40:13;34.78;;;3.83;;
78406;SDS011;67692;51.074;-1.790;2023-12-28T10:42:44;29.63;;;3.70;;
78406;SDS011;67692;51.074;-1.790;2023-12-28T10:45:18;33.08;;;4.63;;
78406;SDS011;67692;51.074;-1.790;2023-12-28T10:47:47;29.10;;;3.88;;
78406;SDS011;67692;51.074;-1.790;2023-12-28T10:50:25;34.67;;;4.28;;
78406;SDS011;67692;51.074;-1.790;2023-12-28T10:52:56;41.10;;;5.72;;
78406;SDS011;67692;51.074;-1.790;2023-12-28T10:55:33;27.63;;;4.03;;
78406;SDS011;67692;51.074;-1.790;2023-12-28T10:58:09;38.50;;;4.45;;
78406;SDS011;67692;51.074;-1.790;2023-12-28T11:00:40;34.78;;;5.28;;
78406;SDS011;67692;51.074;-1.790;2023-12-28T11:03:11;38.30;;;4.38;;
78406;SDS011;67692;51.074;-1.790;2023-12-28T11:05:43;45.28;;;5.20;;
78406;SDS011;67692;51.074;-1.790;2023-12-28T11:08:12;42.42;;;5.45;;
78406;SDS011;67692;51.074;-1.790;2023-12-28T11:10:42;36.35;;;5.07;;
78406;SDS011;67692;51.074;-1.790;2023-12-28T11:13:09;26.30;;;4.07;;
78406;SDS011;67692;51.074;-1.790;2023-12-28T11:15:37;32.65;;;4.63;;
78406;SDS011;67692;51.074;-1.790;2023-12-28T11:18:04;30.08;;;3.50;;
78406;SDS011;67692;51.074;-1.790;2023-12-28T11:20:31;36.65;;;4.32;;
78406;SDS011;67692;51.074;-1.790;2023-12-28T11:22:59;25.40;;;3.45;;
78406;SDS011;67692;51.074;-1.790;2023-12-28T11:25:30;33.03;;;3.95;;
78406;SDS011;67692;51.074;-1.790;2023-12-28T11:27:59;32.50;;;4.00;;
78406;SDS011;67692;51.074;-1.790;2023-12-28T11:30:26;29.92;;;3.42;;
78406;SDS011;67692;51.074;-1.790;2023-12-28T11:32:55;13.10;;;3.08;;
78406;SDS011;67692;51.074;-1.790;2023-12-28T11:35:24;27.23;;;3.45;;
78406;SDS011;67692;51.074;-1.790;2023-12-28T11:40:29;33.72;;;4.15;;
78406;SDS011;67692;51.074;-1.790;2023-12-28T11:42:55;20.90;;;3.95;;
78406;SDS011;67692;51.074;-1.790;2023-12-28T11:45:23;28.08;;;3.88;;
78406;SDS011;67692;51.074;-1.790;2023-12-28T11:47:58;29.98;;;3.80;;
78406;SDS011;67692;51.074;-1.790;2023-12-28T11:50:25;27.02;;;3.15;;
78406;SDS011;67692;51.074;-1.790;2023-12-28T11:52:52;24.48;;;3.75;;
78406;SDS011;67692;51.074;-1.790;2023-12-28T11:55:20;23.05;;;2.70;;
78406;SDS011;67692;51.074;-1.790;2023-12-28T11:57:48;21.58;;;3.08;;
78406;SDS011;67692;51.074;-1.790;2023-12-28T12:00:14;22.75;;;3.83;;
78406;SDS011;67692;51.074;-1.790;2023-12-28T12:02:44;17.50;;;3.03;;
78406;SDS011;67692;51.074;-1.790;2023-12-28T12:05:11;19.70;;;2.85;;
78406;SDS011;67692;51.074;-1.790;2023-12-28T12:07:38;23.38;;;2.95;;
78406;SDS011;67692;51.074;-1.790;2023-12-28T12:10:05;32.20;;;3.95;;
78406;SDS011;67692;51.074;-1.790;2023-12-28T12:12:32;25.38;;;2.70;;
78406;SDS011;67692;51.074;-1.790;2023-12-28T12:14:59;23.85;;;2.97;;
78406;SDS011;67692;51.074;-1.790;2023-12-28T12:17:26;27.42;;;3.33;;
78406;SDS011;67692;51.074;-1.790;2023-12-28T12:19:54;22.67;;;3.63;;
78406;SDS011;67692;51.074;-1.790;2023-12-28T12:22:22;20.95;;;4.07;;
78406;SDS011;67692;51.074;-1.790;2023-12-28T12:24:49;22.33;;;3.20;;
78406;SDS011;67692;51.074;-1.790;2023-12-28T12:27:18;24.77;;;3.63;;
78406;SDS011;67692;51.074;-1.790;2023-12-28T12:29:45;29.52;;;4.22;;
78406;SDS011;67692;51.074;-1.790;2023-12-28T12:32:11;27.73;;;2.85;;
78406;SDS011;67692;51.074;-1.790;2023-12-28T12:34:38;23.55;;;3.42;;
78406;SDS011;67692;51.074;-1.790;2023-12-28T12:37:07;21.30;;;2.75;;
78406;SDS011;67692;51.074;-1.790;2023-12-28T12:39:34;18.23;;;3.08;;
78406;SDS011;67692;51.074;-1.790;2023-12-28T12:42:01;24.48;;;3.42;;
78406;SDS011;67692;51.074;-1.790;2023-12-28T12:44:28;26.73;;;3.53;;
78406;SDS011;67692;51.074;-1.790;2023-12-28T12:46:58;24.85;;;3.38;;
78406;SDS011;67692;51.074;-1.790;2023-12-28T12:49:25;21.75;;;3.15;;
78406;SDS011;67692;51.074;-1.790;2023-12-28T12:51:52;19.40;;;2.53;;
78406;SDS011;67692;51.074;-1.790;2023-12-28T12:54:20;21.63;;;3.30;;
78406;SDS011;67692;51.074;-1.790;2023-12-28T12:56:47;22.70;;;3.03;;
78406;SDS011;67692;51.074;-1.790;2023-12-28T12:59:15;21.70;;;3.45;;
78406;SDS011;67692;51.074;-1.790;2023-12-28T13:01:42;21.38;;;3.55;;
78406;SDS011;67692;51.074;-1.790;2023-12-28T13:04:09;16.38;;;2.70;;
78406;SDS011;67692;51.074;-1.790;2023-12-28T13:06:36;24.92;;;3.40;;
78406;SDS011;67692;51.074;-1.790;2023-12-28T13:09:03;27.00;;;3.08;;
78406;SDS011;67692;51.074;-1.790;2023-12-28T13:11:33;31.38;;;4.18;;
78406;SDS011;67692;51.074;-1.790;2023-12-28T13:14:00;28.52;;;3.65;;
78406;SDS011;67692;51.074;-1.790;2023-12-28T13:16:26;17.85;;;3.05;;
78406;SDS011;67692;51.074;-1.790;2023-12-28T13:18:53;25.48;;;3.55;;
78406;SDS011;67692;51.074;-1.790;2023-12-28T13:21:20;16.17;;;2.95;;
78406;SDS011;67692;51.074;-1.790;2023-12-28T13:23:50;24.75;;;3.38;;
78406;SDS011;67692;51.074;-1.790;2023-12-28T13:26:17;16.58;;;2.75;;
78406;SDS011;67692;51.074;-1.790;2023-12-28T13:28:45;15.95;;;3.28;;
78406;SDS011;67692;51.074;-1.790;2023-12-28T13:31:12;20.38;;;2.80;;
78406;SDS011;67692;51.074;-1.790;2023-12-28T13:33:39;17.58;;;1.98;;
78406;SDS011;67692;51.074;-1.790;2023-12-28T13:36:06;19.05;;;4.70;;
78406;SDS011;67692;51.074;-1.790;2023-12-28T13:38:33;27.40;;;2.80;;
78406;SDS011;67692;51.074;-1.790;2023-12-28T13:40:59;25.92;;;3.60;;
78406;SDS011;67692;51.074;-1.790;2023-12-28T13:43:26;23.63;;;3.28;;
78406;SDS011;67692;51.074;-1.790;2023-12-28T13:45:54;23.05;;;4.22;;
78406;SDS011;67692;51.074;-1.790;2023-12-28T13:48:21;25.20;;;3.60;;
78406;SDS011;67692;51.074;-1.790;2023-12-28T13:50:46;24.40;;;3.10;;
78406;SDS011;67692;51.074;-1.790;2023-12-28T13:53:13;19.45;;;2.83;;
78406;SDS011;67692;51.074;-1.790;2023-12-28T13:55:40;23.80;;;3.13;;
78406;SDS011;67692;51.074;-1.790;2023-12-28T13:58:06;22.17;;;2.67;;
78406;SDS011;67692;51.074;-1.790;2023-12-28T14:00:33;17.70;;;3.10;;
78406;SDS011;67692;51.074;-1.790;2023-12-28T14:03:01;21.83;;;2.78;;
78406;SDS011;67692;51.074;-1.790;2023-12-28T14:05:28;30.98;;;3.75;;
78406;SDS011;67692;51.074;-1.790;2023-12-28T14:07:56;23.77;;;3.15;;
78406;SDS011;67692;51.074;-1.790;2023-12-28T14:10:43;24.85;;;3.22;;
78406;SDS011;67692;51.074;-1.790;2023-12-28T14:13:09;25.02;;;3.70;;
78406;SDS011;67692;51.074;-1.790;2023-12-28T14:15:50;20.92;;;3.13;;
78406;SDS011;67692;51.074;-1.790;2023-12-28T14:18:32;27.35;;;3.60;;
78406;SDS011;67692;51.074;-1.790;2023-12-28T14:21:13;15.27;;;3.05;;
78406;SDS011;67692;51.074;-1.790;2023-12-28T14:23:57;26.90;;;4.13;;
78406;SDS011;67692;51.074;-1.790;2023-12-28T14:26:40;22.35;;;3.70;;
78406;SDS011;67692;51.074;-1.790;2023-12-28T14:29:08;19.77;;;3.25;;
78406;SDS011;67692;51.074;-1.790;2023-12-28T14:31:36;24.73;;;3.10;;
78406;SDS011;67692;51.074;-1.790;2023-12-28T14:34:04;15.77;;;2.78;;
78406;SDS011;67692;51.074;-1.790;2023-12-28T14:36:32;31.17;;;4.32;;
78406;SDS011;67692;51.074;-1.790;2023-12-28T14:39:01;18.80;;;3.13;;
78406;SDS011;67692;51.074;-1.790;2023-12-28T14:41:30;20.02;;;3.72;;
78406;SDS011;67692;51.074;-1.790;2023-12-28T14:43:56;27.15;;;3.17;;